sensor_id;sensor_type;location;lat;lon;timestamp;P1;durP1;ratioP1;P2;durP2;ratioP2
14890;SDS011;7537;48.014;11.590;2023-09-07T00:01:49;3.69;;;3.37;;
14890;SDS011;7537;48.014;11.590;2023-09-07T00:07:16;4.39;;;3.33;;
14890;SDS011;7537;48.014;11.590;2023-09-07T00:12:43;4.46;;;3.69;;
14890;SDS011;7537;48.014;11.590;2023-09-07T00:18:14;3.35;;;3.52;;
14890;SDS011;7537;48.014;11.590;2023-09-07T00:23:44;3.33;;;3.40;;
14890;SDS011;7537;48.014;11.590;2023-09-07T00:29:11;3.67;;;3.76;;
14890;SDS011;7537;48.014;11.590;2023-09-07T00:34:39;3.59;;;3.67;;
14890;SDS011;7537;48.014;11.590;2023-09-07T00:40:07;3.70;;;3.83;;
14890;SDS011;7537;48.014;11.590;2023-09-07T00:45:35;5.37;;;3.39;;
14890;SDS011;7537;48.014;11.590;2023-09-07T00:51:04;3.15;;;3.24;;
14890;SDS011;7537;48.014;11.590;2023-09-07T00:56:31;3.74;;;3.85;;
14890;SDS011;7537;48.014;11.590;2023-09-07T01:01:59;3.48;;;3.38;;
14890;SDS011;7537;48.014;11.590;2023-09-07T01:07:31;3.53;;;3.61;;
14890;SDS011;7537;48.014;11.590;2023-09-07T01:12:59;3.44;;;3.55;;
14890;SDS011;7537;48.014;11.590;2023-09-07T01:18:29;3.65;;;3.39;;
14890;SDS011;7537;48.014;11.590;2023-09-07T01:23:59;5.92;;;3.36;;
14890;SDS011;7537;48.014;11.590;2023-09-07T01:29:27;3.46;;;3.53;;
14890;SDS011;7537;48.014;11.590;2023-09-07T01:34:54;3.72;;;3.82;;
14890;SDS011;7537;48.014;11.590;2023-09-07T01:40:22;4.78;;;4.84;;
14890;SDS011;7537;48.014;11.590;2023-09-07T01:45:49;3.37;;;3.49;;
14890;SDS011;7537;48.014;11.590;2023-09-07T01:51:16;4.62;;;4.13;;
14890;SDS011;7537;48.014;11.590;2023-09-07T01:56:47;3.37;;;3.50;;
14890;SDS011;7537;48.014;11.590;2023-09-07T02:02:16;4.49;;;3.93;;
14890;SDS011;7537;48.014;11.590;2023-09-07T02:07:44;3.69;;;3.83;;
14890;SDS011;7537;48.014;11.590;2023-09-07T02:13:11;2.91;;;3.08;;
14890;SDS011;7537;48.014;11.590;2023-09-07T02:18:44;6.01;;;3.74;;
14890;SDS011;7537;48.014;11.590;2023-09-07T02:24:11;8.24;;;4.19;;
14890;SDS011;7537;48.014;11.590;2023-09-07T02:29:39;6.23;;;4.18;;
14890;SDS011;7537;48.014;11.590;2023-09-07T02:35:06;3.68;;;3.70;;
14890;SDS011;7537;48.014;11.590;2023-09-07T02:40:34;3.93;;;4.07;;
14890;SDS011;7537;48.014;11.590;2023-09-07T02:46:07;3.93;;;3.99;;
14890;SDS011;7537;48.014;11.590;2023-09-07T02:51:35;6.25;;;3.92;;
14890;SDS011;7537;48.014;11.590;2023-09-07T02:57:03;3.92;;;4.04;;
14890;SDS011;7537;48.014;11.590;2023-09-07T03:02:38;3.87;;;3.95;;
14890;SDS011;7537;48.014;11.590;2023-09-07T03:08:07;3.59;;;3.68;;
14890;SDS011;7537;48.014;11.590;2023-09-07T03:13:35;3.59;;;3.45;;
14890;SDS011;7537;48.014;11.590;2023-09-07T03:19:06;3.59;;;3.69;;
14890;SDS011;7537;48.014;11.590;2023-09-07T03:24:33;4.15;;;4.12;;
14890;SDS011;7537;48.014;11.590;2023-09-07T03:30:00;4.09;;;3.91;;
14890;SDS011;7537;48.014;11.590;2023-09-07T03:35:28;4.11;;;4.15;;
14890;SDS011;7537;48.014;11.590;2023-09-07T03:40:55;3.85;;;4.00;;
14890;SDS011;7537;48.014;11.590;2023-09-07T03:46:22;8.22;;;3.73;;
14890;SDS011;7537;48.014;11.590;2023-09-07T03:51:51;3.62;;;3.74;;
14890;SDS011;7537;48.014;11.590;2023-09-07T03:57:20;3.47;;;3.54;;
14890;SDS011;7537;48.014;11.590;2023-09-07T04:02:49;3.99;;;3.72;;
14890;SDS011;7537;48.014;11.590;2023-09-07T04:08:17;5.34;;;3.59;;
14890;SDS011;7537;48.014;11.590;2023-09-07T04:13:44;4.21;;;4.00;;
14890;SDS011;7537;48.014;11.590;2023-09-07T04:19:15;8.01;;;4.06;;
14890;SDS011;7537;48.014;11.590;2023-09-07T04:24:42;4.46;;;4.21;;
14890;SDS011;7537;48.014;11.590;2023-09-07T04:30:10;3.40;;;3.38;;
14890;SDS011;7537;48.014;11.590;2023-09-07T04:35:38;4.09;;;3.54;;
14890;SDS011;7537;48.014;11.590;2023-09-07T04:41:08;3.87;;;3.91;;
14890;SDS011;7537;48.014;11.590;2023-09-07T04:46:36;4.26;;;4.11;;
14890;SDS011;7537;48.014;11.590;2023-09-07T04:52:05;4.66;;;3.82;;
14890;SDS011;7537;48.014;11.590;2023-09-07T04:57:41;3.60;;;3.67;;
14890;SDS011;7537;48.014;11.590;2023-09-07T05:03:08;4.78;;;4.86;;
14890;SDS011;7537;48.014;11.590;2023-09-07T05:08:36;3.94;;;4.06;;
14890;SDS011;7537;48.014;11.590;2023-09-07T05:14:04;4.39;;;3.94;;
14890;SDS011;7537;48.014;11.590;2023-09-07T05:19:34;4.49;;;4.31;;
14890;SDS011;7537;48.014;11.590;2023-09-07T05:25:02;3.86;;;3.80;;
14890;SDS011;7537;48.014;11.590;2023-09-07T05:30:29;5.13;;;4.19;;
14890;SDS011;7537;48.014;11.590;2023-09-07T05:35:57;4.06;;;3.36;;
14890;SDS011;7537;48.014;11.590;2023-09-07T05:41:25;4.91;;;3.69;;
14890;SDS011;7537;48.014;11.590;2023-09-07T05:46:52;3.44;;;3.41;;
14890;SDS011;7537;48.014;11.590;2023-09-07T05:52:19;4.26;;;3.83;;
14890;SDS011;7537;48.014;11.590;2023-09-07T05:57:48;4.99;;;4.41;;
14890;SDS011;7537;48.014;11.590;2023-09-07T06:03:16;8.90;;;3.77;;
14890;SDS011;7537;48.014;11.590;2023-09-07T06:08:44;5.32;;;3.24;;
14890;SDS011;7537;48.014;11.590;2023-09-07T06:14:12;3.77;;;3.89;;
14890;SDS011;7537;48.014;11.590;2023-09-07T06:19:43;4.05;;;3.78;;
14890;SDS011;7537;48.014;11.590;2023-09-07T06:25:11;3.94;;;4.04;;
14890;SDS011;7537;48.014;11.590;2023-09-07T06:30:38;3.83;;;3.86;;
14890;SDS011;7537;48.014;11.590;2023-09-07T06:36:06;6.64;;;4.72;;
14890;SDS011;7537;48.014;11.590;2023-09-07T06:41:33;4.59;;;4.53;;
14890;SDS011;7537;48.014;11.590;2023-09-07T06:47:03;8.43;;;6.63;;
14890;SDS011;7537;48.014;11.590;2023-09-07T06:52:31;11.77;;;9.33;;
14890;SDS011;7537;48.014;11.590;2023-09-07T06:57:58;7.72;;;7.76;;
14890;SDS011;7537;48.014;11.590;2023-09-07T07:03:26;8.70;;;7.84;;
14890;SDS011;7537;48.014;11.590;2023-09-07T07:08:53;9.91;;;9.62;;
14890;SDS011;7537;48.014;11.590;2023-09-07T07:14:21;8.09;;;8.26;;
14890;SDS011;7537;48.014;11.590;2023-09-07T07:19:51;8.61;;;8.48;;
14890;SDS011;7537;48.014;11.590;2023-09-07T07:25:19;6.81;;;6.89;;
14890;SDS011;7537;48.014;11.590;2023-09-07T07:30:49;5.61;;;5.80;;
14890;SDS011;7537;48.014;11.590;2023-09-07T07:36:16;5.69;;;5.72;;
14890;SDS011;7537;48.014;11.590;2023-09-07T07:41:44;7.99;;;6.24;;
14890;SDS011;7537;48.014;11.590;2023-09-07T07:47:11;6.21;;;6.34;;
14890;SDS011;7537;48.014;11.590;2023-09-07T07:52:39;5.89;;;6.01;;
14890;SDS011;7537;48.014;11.590;2023-09-07T07:58:07;5.46;;;5.43;;
14890;SDS011;7537;48.014;11.590;2023-09-07T08:03:34;6.23;;;5.76;;
14890;SDS011;7537;48.014;11.590;2023-09-07T08:09:02;7.27;;;6.19;;
14890;SDS011;7537;48.014;11.590;2023-09-07T08:14:30;6.74;;;4.97;;
14890;SDS011;7537;48.014;11.590;2023-09-07T08:20:01;6.71;;;5.63;;
14890;SDS011;7537;48.014;11.590;2023-09-07T08:25:28;6.21;;;4.78;;
14890;SDS011;7537;48.014;11.590;2023-09-07T08:30:55;4.54;;;4.18;;
14890;SDS011;7537;48.014;11.590;2023-09-07T08:36:23;7.96;;;5.33;;
14890;SDS011;7537;48.014;11.590;2023-09-07T08:41:52;6.33;;;5.18;;
14890;SDS011;7537;48.014;11.590;2023-09-07T08:47:20;5.44;;;5.16;;
14890;SDS011;7537;48.014;11.590;2023-09-07T08:52:48;10.51;;;5.62;;
14890;SDS011;7537;48.014;11.590;2023-09-07T08:58:18;5.02;;;3.96;;
14890;SDS011;7537;48.014;11.590;2023-09-07T09:03:45;5.20;;;4.87;;
14890;SDS011;7537;48.014;11.590;2023-09-07T09:09:21;5.61;;;5.23;;
14890;SDS011;7537;48.014;11.590;2023-09-07T09:14:48;5.26;;;5.01;;
14890;SDS011;7537;48.014;11.590;2023-09-07T09:20:26;3.81;;;3.97;;
14890;SDS011;7537;48.014;11.590;2023-09-07T09:25:54;5.95;;;4.26;;
14890;SDS011;7537;48.014;11.590;2023-09-07T09:31:23;5.70;;;4.18;;
14890;SDS011;7537;48.014;11.590;2023-09-07T09:36:51;4.17;;;4.06;;
14890;SDS011;7537;48.014;11.590;2023-09-07T09:42:19;6.37;;;4.56;;
14890;SDS011;7537;48.014;11.590;2023-09-07T09:47:47;6.50;;;4.59;;
14890;SDS011;7537;48.014;11.590;2023-09-07T09:53:17;6.01;;;5.28;;
14890;SDS011;7537;48.014;11.590;2023-09-07T09:58:45;5.22;;;4.56;;
14890;SDS011;7537;48.014;11.590;2023-09-07T10:04:14;7.25;;;5.02;;
14890;SDS011;7537;48.014;11.590;2023-09-07T10:09:45;7.29;;;4.39;;
14890;SDS011;7537;48.014;11.590;2023-09-07T10:15:22;5.19;;;4.32;;
14890;SDS011;7537;48.014;11.590;2023-09-07T10:20:54;5.93;;;5.16;;
14890;SDS011;7537;48.014;11.590;2023-09-07T10:26:22;4.52;;;4.53;;
14890;SDS011;7537;48.014;11.590;2023-09-07T10:31:51;4.34;;;4.40;;
14890;SDS011;7537;48.014;11.590;2023-09-07T10:37:19;4.44;;;4.56;;
14890;SDS011;7537;48.014;11.590;2023-09-07T10:42:47;4.59;;;4.68;;
14890;SDS011;7537;48.014;11.590;2023-09-07T10:48:14;4.01;;;3.85;;
14890;SDS011;7537;48.014;11.590;2023-09-07T10:53:45;6.31;;;4.06;;
14890;SDS011;7537;48.014;11.590;2023-09-07T10:59:13;4.54;;;4.16;;
14890;SDS011;7537;48.014;11.590;2023-09-07T11:04:41;5.49;;;4.82;;
14890;SDS011;7537;48.014;11.590;2023-09-07T11:10:10;8.47;;;5.19;;
14890;SDS011;7537;48.014;11.590;2023-09-07T11:15:37;5.99;;;4.49;;
14890;SDS011;7537;48.014;11.590;2023-09-07T11:21:09;4.21;;;4.28;;
14890;SDS011;7537;48.014;11.590;2023-09-07T11:26:46;5.76;;;4.61;;
14890;SDS011;7537;48.014;11.590;2023-09-07T11:32:14;4.78;;;4.76;;
14890;SDS011;7537;48.014;11.590;2023-09-07T11:37:41;4.06;;;4.18;;
14890;SDS011;7537;48.014;11.590;2023-09-07T11:43:09;4.46;;;4.34;;
14890;SDS011;7537;48.014;11.590;2023-09-07T11:48:40;5.07;;;5.04;;
14890;SDS011;7537;48.014;11.590;2023-09-07T11:54:07;5.19;;;5.11;;
14890;SDS011;7537;48.014;11.590;2023-09-07T11:59:35;4.79;;;4.21;;
14890;SDS011;7537;48.014;11.590;2023-09-07T12:05:02;4.87;;;4.36;;
14890;SDS011;7537;48.014;11.590;2023-09-07T12:10:30;5.04;;;5.01;;
14890;SDS011;7537;48.014;11.590;2023-09-07T12:15:58;3.95;;;4.11;;
14890;SDS011;7537;48.014;11.590;2023-09-07T12:21:34;4.47;;;4.37;;
14890;SDS011;7537;48.014;11.590;2023-09-07T12:27:01;4.08;;;4.04;;
14890;SDS011;7537;48.014;11.590;2023-09-07T12:32:29;7.84;;;4.17;;
14890;SDS011;7537;48.014;11.590;2023-09-07T12:37:56;3.81;;;3.96;;
14890;SDS011;7537;48.014;11.590;2023-09-07T12:43:24;4.41;;;4.27;;
14890;SDS011;7537;48.014;11.590;2023-09-07T12:48:51;4.25;;;4.36;;
14890;SDS011;7537;48.014;11.590;2023-09-07T12:54:20;4.29;;;3.85;;
14890;SDS011;7537;48.014;11.590;2023-09-07T12:59:48;3.92;;;4.07;;
14890;SDS011;7537;48.014;11.590;2023-09-07T13:05:15;4.12;;;4.19;;
14890;SDS011;7537;48.014;11.590;2023-09-07T13:10:43;5.06;;;3.58;;
14890;SDS011;7537;48.014;11.590;2023-09-07T13:16:21;3.33;;;3.42;;
14890;SDS011;7537;48.014;11.590;2023-09-07T13:21:52;3.65;;;3.84;;
14890;SDS011;7537;48.014;11.590;2023-09-07T13:27:20;4.24;;;4.33;;
14890;SDS011;7537;48.014;11.590;2023-09-07T13:32:48;5.14;;;4.41;;
14890;SDS011;7537;48.014;11.590;2023-09-07T13:38:18;4.44;;;4.01;;
14890;SDS011;7537;48.014;11.590;2023-09-07T13:43:45;3.82;;;3.92;;
14890;SDS011;7537;48.014;11.590;2023-09-07T13:49:13;4.40;;;3.79;;
14890;SDS011;7537;48.014;11.590;2023-09-07T13:54:40;7.47;;;3.81;;
14890;SDS011;7537;48.014;11.590;2023-09-07T14:00:08;3.29;;;3.33;;
14890;SDS011;7537;48.014;11.590;2023-09-07T14:05:36;3.41;;;3.43;;
14890;SDS011;7537;48.014;11.590;2023-09-07T14:11:03;4.81;;;3.36;;
14890;SDS011;7537;48.014;11.590;2023-09-07T14:16:31;3.59;;;3.65;;
14890;SDS011;7537;48.014;11.590;2023-09-07T14:22:02;3.38;;;3.51;;
14890;SDS011;7537;48.014;11.590;2023-09-07T14:27:29;4.08;;;4.03;;
14890;SDS011;7537;48.014;11.590;2023-09-07T14:32:56;6.13;;;3.21;;
14890;SDS011;7537;48.014;11.590;2023-09-07T14:38:24;3.24;;;3.38;;
14890;SDS011;7537;48.014;11.590;2023-09-07T14:43:51;3.68;;;3.17;;
14890;SDS011;7537;48.014;11.590;2023-09-07T14:49:19;4.73;;;3.18;;
14890;SDS011;7537;48.014;11.590;2023-09-07T14:54:48;4.93;;;2.82;;
14890;SDS011;7537;48.014;11.590;2023-09-07T15:00:15;3.29;;;3.30;;
14890;SDS011;7537;48.014;11.590;2023-09-07T15:05:43;4.30;;;2.74;;
14890;SDS011;7537;48.014;11.590;2023-09-07T15:11:10;3.10;;;3.04;;
14890;SDS011;7537;48.014;11.590;2023-09-07T15:16:38;4.54;;;4.34;;
14890;SDS011;7537;48.014;11.590;2023-09-07T15:22:11;3.77;;;3.78;;
14890;SDS011;7537;48.014;11.590;2023-09-07T15:27:38;3.22;;;3.30;;
14890;SDS011;7537;48.014;11.590;2023-09-07T15:33:05;3.76;;;3.49;;
14890;SDS011;7537;48.014;11.590;2023-09-07T15:38:33;5.42;;;3.57;;
14890;SDS011;7537;48.014;11.590;2023-09-07T15:44:00;3.68;;;3.33;;
14890;SDS011;7537;48.014;11.590;2023-09-07T15:49:28;3.51;;;3.57;;
14890;SDS011;7537;48.014;11.590;2023-09-07T15:54:56;12.55;;;3.92;;
14890;SDS011;7537;48.014;11.590;2023-09-07T16:00:24;3.35;;;3.29;;
14890;SDS011;7537;48.014;11.590;2023-09-07T16:05:51;3.19;;;3.36;;
14890;SDS011;7537;48.014;11.590;2023-09-07T16:11:19;4.76;;;3.32;;
14890;SDS011;7537;48.014;11.590;2023-09-07T16:16:49;3.27;;;3.24;;
14890;SDS011;7537;48.014;11.590;2023-09-07T16:22:20;3.72;;;3.35;;
14890;SDS011;7537;48.014;11.590;2023-09-07T16:27:47;4.96;;;3.82;;
14890;SDS011;7537;48.014;11.590;2023-09-07T16:33:15;5.17;;;3.69;;
14890;SDS011;7537;48.014;11.590;2023-09-07T16:38:46;4.18;;;4.01;;
14890;SDS011;7537;48.014;11.590;2023-09-07T16:44:15;3.36;;;3.24;;
14890;SDS011;7537;48.014;11.590;2023-09-07T16:49:43;4.06;;;3.55;;
14890;SDS011;7537;48.014;11.590;2023-09-07T16:55:11;3.69;;;3.59;;
14890;SDS011;7537;48.014;11.590;2023-09-07T17:00:38;6.08;;;3.45;;
14890;SDS011;7537;48.014;11.590;2023-09-07T17:06:05;3.05;;;3.21;;
14890;SDS011;7537;48.014;11.590;2023-09-07T17:11:33;3.95;;;4.08;;
14890;SDS011;7537;48.014;11.590;2023-09-07T17:17:01;5.18;;;3.42;;
14890;SDS011;7537;48.014;11.590;2023-09-07T17:22:32;4.37;;;3.89;;
14890;SDS011;7537;48.014;11.590;2023-09-07T17:28:00;7.45;;;3.63;;
14890;SDS011;7537;48.014;11.590;2023-09-07T17:33:27;3.98;;;3.06;;
14890;SDS011;7537;48.014;11.590;2023-09-07T17:38:54;4.55;;;3.73;;
14890;SDS011;7537;48.014;11.590;2023-09-07T17:44:22;4.39;;;3.66;;
14890;SDS011;7537;48.014;11.590;2023-09-07T17:49:50;3.61;;;3.71;;
14890;SDS011;7537;48.014;11.590;2023-09-07T17:55:18;3.52;;;3.63;;
14890;SDS011;7537;48.014;11.590;2023-09-07T18:00:45;4.46;;;3.99;;
14890;SDS011;7537;48.014;11.590;2023-09-07T18:06:13;4.19;;;4.29;;
14890;SDS011;7537;48.014;11.590;2023-09-07T18:11:43;3.76;;;3.89;;
14890;SDS011;7537;48.014;11.590;2023-09-07T18:17:10;4.59;;;4.56;;
14890;SDS011;7537;48.014;11.590;2023-09-07T18:22:41;8.07;;;4.93;;
14890;SDS011;7537;48.014;11.590;2023-09-07T18:28:15;8.01;;;4.63;;
14890;SDS011;7537;48.014;11.590;2023-09-07T18:33:43;4.29;;;4.31;;
14890;SDS011;7537;48.014;11.590;2023-09-07T18:39:11;3.77;;;3.82;;
14890;SDS011;7537;48.014;11.590;2023-09-07T18:44:38;9.08;;;4.53;;
14890;SDS011;7537;48.014;11.590;2023-09-07T18:50:07;5.27;;;4.71;;
14890;SDS011;7537;48.014;11.590;2023-09-07T18:55:37;4.91;;;4.98;;
14890;SDS011;7537;48.014;11.590;2023-09-07T19:01:12;7.64;;;4.75;;
14890;SDS011;7537;48.014;11.590;2023-09-07T19:06:40;5.91;;;4.89;;
14890;SDS011;7537;48.014;11.590;2023-09-07T19:12:08;5.11;;;4.82;;
14890;SDS011;7537;48.014;11.590;2023-09-07T19:17:36;4.00;;;4.11;;
14890;SDS011;7537;48.014;11.590;2023-09-07T19:23:07;5.36;;;4.71;;
14890;SDS011;7537;48.014;11.590;2023-09-07T19:28:35;4.68;;;4.41;;
14890;SDS011;7537;48.014;11.590;2023-09-07T19:34:03;7.82;;;4.54;;
14890;SDS011;7537;48.014;11.590;2023-09-07T19:39:31;5.64;;;4.52;;
14890;SDS011;7537;48.014;11.590;2023-09-07T19:44:59;4.56;;;4.57;;
14890;SDS011;7537;48.014;11.590;2023-09-07T19:50:26;4.53;;;4.56;;
14890;SDS011;7537;48.014;11.590;2023-09-07T19:55:54;4.97;;;4.87;;
14890;SDS011;7537;48.014;11.590;2023-09-07T20:01:23;5.49;;;4.56;;
14890;SDS011;7537;48.014;11.590;2023-09-07T20:06:52;4.57;;;4.30;;
14890;SDS011;7537;48.014;11.590;2023-09-07T20:12:23;4.77;;;4.52;;
14890;SDS011;7537;48.014;11.590;2023-09-07T20:17:52;5.08;;;5.01;;
14890;SDS011;7537;48.014;11.590;2023-09-07T20:23:24;5.66;;;5.37;;
14890;SDS011;7537;48.014;11.590;2023-09-07T20:28:52;5.58;;;5.15;;
14890;SDS011;7537;48.014;11.590;2023-09-07T20:34:22;4.70;;;4.43;;
14890;SDS011;7537;48.014;11.590;2023-09-07T20:39:51;4.58;;;4.69;;
14890;SDS011;7537;48.014;11.590;2023-09-07T20:45:19;10.50;;;5.49;;
14890;SDS011;7537;48.014;11.590;2023-09-07T20:50:47;4.38;;;4.49;;
14890;SDS011;7537;48.014;11.590;2023-09-07T20:56:15;5.46;;;4.58;;
14890;SDS011;7537;48.014;11.590;2023-09-07T21:01:42;5.45;;;5.39;;
14890;SDS011;7537;48.014;11.590;2023-09-07T21:07:10;5.10;;;5.12;;
14890;SDS011;7537;48.014;11.590;2023-09-07T21:12:37;6.50;;;4.80;;
14890;SDS011;7537;48.014;11.590;2023-09-07T21:18:05;4.66;;;4.54;;
14890;SDS011;7537;48.014;11.590;2023-09-07T21:23:36;5.37;;;5.04;;
14890;SDS011;7537;48.014;11.590;2023-09-07T21:29:03;5.06;;;4.59;;
14890;SDS011;7537;48.014;11.590;2023-09-07T21:34:31;5.21;;;4.92;;
14890;SDS011;7537;48.014;11.590;2023-09-07T21:39:58;6.93;;;4.74;;
14890;SDS011;7537;48.014;11.590;2023-09-07T21:45:26;5.52;;;5.13;;
14890;SDS011;7537;48.014;11.590;2023-09-07T21:50:53;4.30;;;4.41;;
14890;SDS011;7537;48.014;11.590;2023-09-07T21:56:21;4.30;;;4.37;;
14890;SDS011;7537;48.014;11.590;2023-09-07T22:01:48;9.88;;;5.47;;
14890;SDS011;7537;48.014;11.590;2023-09-07T22:07:16;5.64;;;4.84;;
14890;SDS011;7537;48.014;11.590;2023-09-07T22:12:43;4.49;;;4.64;;
14890;SDS011;7537;48.014;11.590;2023-09-07T22:18:11;5.11;;;4.95;;
14890;SDS011;7537;48.014;11.590;2023-09-07T22:23:42;5.26;;;5.38;;
14890;SDS011;7537;48.014;11.590;2023-09-07T22:29:10;4.72;;;4.81;;
14890;SDS011;7537;48.014;11.590;2023-09-07T22:34:40;5.41;;;5.43;;
14890;SDS011;7537;48.014;11.590;2023-09-07T22:40:11;4.82;;;4.78;;
14890;SDS011;7537;48.014;11.590;2023-09-07T22:45:38;5.44;;;5.37;;
14890;SDS011;7537;48.014;11.590;2023-09-07T22:51:06;5.17;;;4.74;;
14890;SDS011;7537;48.014;11.590;2023-09-07T22:56:33;4.93;;;4.99;;
14890;SDS011;7537;48.014;11.590;2023-09-07T23:02:01;8.31;;;5.57;;
14890;SDS011;7537;48.014;11.590;2023-09-07T23:07:28;6.22;;;4.91;;
14890;SDS011;7537;48.014;11.590;2023-09-07T23:12:55;5.19;;;5.09;;
14890;SDS011;7537;48.014;11.590;2023-09-07T23:18:23;4.84;;;4.89;;
14890;SDS011;7537;48.014;11.590;2023-09-07T23:23:55;7.66;;;5.09;;
14890;SDS011;7537;48.014;11.590;2023-09-07T23:29:22;6.14;;;5.63;;
14890;SDS011;7537;48.014;11.590;2023-09-07T23:34:50;6.15;;;5.84;;
14890;SDS011;7537;48.014;11.590;2023-09-07T23:40:18;6.14;;;6.20;;
14890;SDS011;7537;48.014;11.590;2023-09-07T23:45:45;5.79;;;4.76;;
14890;SDS011;7537;48.014;11.590;2023-09-07T23:51:12;5.15;;;5.31;;
14890;SDS011;7537;48.014;11.590;2023-09-07T23:56:40;11.51;;;5.98;;
